createdAt,value
2023-05-12T05:41:38.600Z,13.00
2023-05-12T05:44:19.012Z,8.90
2023-05-12T05:46:53.571Z,7.40
2023-05-12T05:50:04.577Z,7.70
2023-05-12T05:53:27.755Z,13.20
2023-05-12T05:56:25.990Z,7.10
2023-05-12T05:58:53.671Z,13.70
2023-05-12T06:01:20.633Z,9.10
2023-05-12T06:03:47.989Z,12.90
2023-05-12T06:06:16.218Z,7.30
2023-05-12T06:08:46.205Z,7.00
2023-05-12T06:11:15.347Z,16.80
2023-05-12T06:13:43.543Z,12.30
2023-05-12T06:16:10.899Z,6.00
2023-05-12T06:18:54.306Z,13.70
2023-05-12T06:21:50.982Z,9.80
2023-05-12T06:24:51.721Z,8.30
2023-05-12T06:27:47.366Z,10.80
2023-05-12T06:30:16.408Z,4.30
2023-05-12T06:32:50.014Z,5.40
2023-05-12T06:35:17.373Z,5.50
2023-05-12T06:37:49.530Z,5.00
2023-05-12T06:40:21.241Z,8.40
2023-05-12T06:42:50.230Z,7.90
2023-05-12T06:45:20.422Z,6.20
2023-05-12T06:47:48.973Z,8.00
2023-05-12T06:50:17.277Z,8.70
2023-05-12T06:52:46.753Z,11.90
2023-05-12T06:55:14.878Z,6.60
2023-05-12T06:57:59.426Z,4.60
2023-05-12T07:00:31.920Z,6.10
2023-05-12T07:02:59.586Z,3.80
2023-05-12T07:05:28.523Z,8.10
2023-05-12T07:07:55.740Z,6.90
2023-05-12T07:10:22.740Z,3.50
2023-05-12T07:12:50.376Z,9.40
2023-05-12T07:15:18.734Z,10.20
2023-05-12T07:17:51.087Z,2.50
2023-05-12T07:20:19.858Z,2.50
2023-05-12T07:22:48.241Z,5.20
2023-05-12T07:25:16.100Z,4.50
2023-05-12T07:27:43.452Z,3.70
2023-05-12T07:30:10.809Z,3.50
2023-05-12T07:32:37.698Z,5.20
2023-05-12T07:35:05.276Z,5.90
2023-05-12T07:37:32.333Z,3.30
2023-05-12T07:39:59.292Z,2.40
2023-05-12T07:42:27.073Z,3.30
2023-05-12T07:44:54.147Z,2.80
2023-05-12T07:47:21.069Z,2.50
2023-05-12T07:49:48.055Z,5.30
2023-05-12T07:52:14.986Z,3.20
2023-05-12T07:54:41.942Z,6.50
2023-05-12T07:57:13.044Z,2.70
2023-05-12T07:59:40.738Z,9.70
2023-05-12T08:02:08.435Z,9.00
2023-05-12T08:04:45.996Z,3.00
2023-05-12T08:07:13.546Z,2.60
2023-05-12T08:09:40.617Z,8.90
2023-05-12T08:12:09.404Z,3.40
2023-05-12T08:14:37.314Z,2.60
2023-05-12T08:17:35.067Z,4.90
2023-05-12T08:20:14.115Z,6.80
2023-05-12T08:22:41.804Z,3.10
2023-05-12T08:25:17.850Z,3.50
2023-05-12T08:27:54.182Z,5.90
2023-05-12T08:30:22.627Z,3.50
2023-05-12T08:32:49.831Z,5.60
2023-05-12T08:35:16.825Z,3.40
2023-05-12T08:37:47.747Z,3.20
2023-05-12T08:40:23.680Z,6.50
2023-05-12T08:43:25.402Z,3.40
2023-05-12T08:45:57.875Z,3.30
2023-05-12T08:48:27.377Z,6.90
2023-05-12T08:50:54.440Z,2.60
2023-05-12T08:53:22.418Z,4.30
2023-05-12T08:57:08.078Z,14.90
2023-05-12T08:58:41.630Z,5.50
2023-05-12T09:01:09.848Z,4.10
2023-05-12T09:03:36.890Z,2.00
2023-05-12T09:06:03.942Z,4.50
2023-05-12T09:08:34.976Z,4.10
2023-05-12T09:11:02.267Z,9.60
2023-05-12T09:13:52.598Z,2.50
2023-05-12T09:16:23.601Z,4.50
2023-05-12T09:18:54.738Z,3.10
2023-05-12T09:21:21.992Z,5.80
2023-05-12T09:24:06.799Z,4.20
2023-05-12T09:26:54.852Z,6.10
2023-05-12T09:29:31.334Z,3.90
2023-05-12T09:32:02.970Z,3.90
2023-05-12T09:34:32.095Z,4.10
2023-05-12T09:37:01.356Z,4.70
2023-05-12T09:39:30.213Z,7.30
2023-05-12T09:41:57.428Z,5.60
2023-05-12T09:44:24.935Z,3.00
2023-05-12T09:46:52.833Z,6.40
2023-05-12T09:49:20.520Z,5.80
2023-05-12T09:51:47.680Z,5.50
2023-05-12T09:54:28.251Z,3.50
2023-05-12T09:56:58.679Z,5.80
2023-05-12T09:59:33.744Z,2.60
2023-05-12T10:02:01.765Z,4.60
2023-05-12T10:04:29.253Z,2.60
2023-05-12T10:06:56.481Z,6.30
2023-05-12T10:09:35.668Z,3.40
2023-05-12T10:12:08.984Z,6.60
2023-05-12T10:14:36.161Z,5.20
2023-05-12T10:17:03.262Z,3.70
2023-05-12T10:19:30.649Z,10.30
2023-05-12T10:21:57.863Z,6.00
2023-05-12T10:24:27.362Z,7.20
2023-05-12T10:26:56.718Z,5.50
2023-05-12T10:29:33.172Z,5.20
2023-05-12T10:32:01.326Z,4.20
2023-05-12T10:34:37.012Z,2.10
2023-05-12T10:37:11.290Z,6.20
2023-05-12T10:39:47.227Z,8.20
2023-05-12T10:42:26.163Z,2.60
2023-05-12T10:44:55.556Z,6.50
2023-05-12T10:47:29.530Z,2.70
2023-05-12T10:49:59.881Z,6.90
2023-05-12T10:52:26.894Z,2.60
2023-05-12T10:55:00.339Z,2.30
2023-05-12T10:57:27.784Z,12.90
2023-05-12T10:59:59.640Z,4.70
2023-05-12T11:02:36.689Z,5.60
2023-05-12T11:05:11.164Z,2.30
2023-05-12T11:07:39.765Z,4.70
2023-05-12T11:10:08.048Z,3.30
2023-05-12T11:12:38.166Z,7.90
2023-05-12T11:15:06.028Z,2.80
2023-05-12T11:17:33.240Z,1.80
2023-05-12T11:20:01.584Z,5.90
2023-05-12T11:22:28.875Z,7.30
2023-05-12T11:24:56.108Z,2.60
2023-05-12T11:27:23.811Z,4.10
2023-05-12T11:30:01.231Z,5.30
2023-05-12T11:32:29.856Z,2.40
2023-05-12T11:35:16.965Z,2.60
2023-05-12T11:37:44.634Z,3.50
2023-05-12T11:40:15.688Z,5.40
2023-05-12T11:42:46.255Z,4.60
2023-05-12T11:45:21.713Z,2.60
2023-05-12T11:47:49.028Z,3.70
2023-05-12T11:50:25.954Z,4.00
2023-05-12T11:52:53.077Z,3.60
2023-05-12T11:55:22.451Z,3.20
2023-05-12T11:58:01.026Z,2.90
2023-05-12T12:00:32.784Z,2.20
2023-05-12T12:03:10.156Z,2.50
2023-05-12T12:05:37.816Z,5.20
2023-05-12T12:08:14.992Z,2.00
2023-05-12T12:10:45.688Z,2.80
2023-05-12T12:13:22.674Z,3.40
2023-05-12T12:15:50.414Z,3.40
2023-05-12T12:18:17.685Z,3.80
2023-05-12T12:20:45.111Z,5.30
2023-05-12T12:23:12.065Z,2.50
2023-05-12T12:25:39.041Z,4.80
2023-05-12T12:28:05.961Z,2.90
2023-05-12T12:30:33.003Z,4.10
2023-05-12T12:33:00.014Z,1.60
2023-05-12T12:35:27.168Z,2.70
2023-05-12T12:37:54.248Z,5.10
2023-05-12T12:40:21.424Z,2.80
2023-05-12T12:42:48.389Z,4.10
2023-05-12T12:45:15.447Z,3.20
2023-05-12T12:47:43.319Z,3.30
2023-05-12T12:50:10.781Z,2.70
2023-05-12T12:52:38.486Z,5.00
2023-05-12T12:55:06.726Z,3.50
2023-05-12T12:57:33.647Z,1.50
2023-05-12T13:00:01.456Z,5.30
2023-05-12T13:02:28.451Z,7.80
2023-05-12T13:04:55.494Z,2.20
2023-05-12T13:07:22.489Z,2.70
2023-05-12T13:09:49.402Z,3.50
2023-05-12T13:12:16.699Z,4.70
2023-05-12T13:14:43.587Z,5.10
2023-05-12T13:17:10.556Z,7.30
2023-05-12T13:19:38.158Z,4.40
2023-05-12T13:22:05.591Z,5.10
2023-05-12T13:24:33.040Z,4.90
2023-05-12T13:27:00.067Z,5.60
2023-05-12T13:29:27.081Z,4.40
2023-05-12T13:31:54.530Z,2.30
2023-05-12T13:34:21.443Z,3.90
2023-05-12T13:36:48.677Z,2.30
2023-05-12T13:39:16.412Z,3.40
2023-05-12T13:41:44.779Z,1.50
2023-05-12T13:44:11.907Z,2.30
2023-05-12T13:46:38.941Z,1.70
2023-05-12T13:49:05.989Z,3.00
2023-05-12T13:51:32.897Z,3.20
2023-05-12T13:53:59.788Z,3.60
2023-05-12T13:56:26.867Z,7.10
2023-05-12T13:58:53.859Z,2.30
2023-05-12T14:01:20.844Z,6.00
2023-05-12T14:03:47.853Z,4.10
2023-05-12T14:06:14.802Z,2.30
2023-05-12T14:08:41.946Z,3.10
2023-05-12T14:11:08.879Z,4.40
2023-05-12T14:13:36.151Z,5.50
2023-05-12T14:16:04.314Z,8.40
2023-05-12T14:18:31.389Z,7.40
2023-05-12T14:20:58.446Z,4.60
2023-05-12T14:23:25.373Z,5.50
2023-05-12T14:25:52.260Z,5.30
2023-05-12T14:28:19.310Z,3.30
2023-05-12T14:30:48.746Z,3.40
2023-05-12T14:33:15.842Z,7.10
2023-05-12T14:35:43.474Z,2.00
2023-05-12T14:38:15.237Z,3.50
2023-05-12T14:40:42.743Z,10.20
2023-05-12T14:43:09.773Z,5.80
2023-05-12T14:45:36.639Z,5.30
2023-05-12T14:48:03.918Z,10.30
2023-05-12T14:50:30.990Z,2.70
2023-05-12T14:52:58.004Z,11.70
2023-05-12T14:55:25.332Z,8.20
2023-05-12T14:57:52.305Z,5.20
2023-05-12T15:00:21.408Z,2.50
2023-05-12T15:02:48.778Z,6.00
2023-05-12T15:05:16.313Z,11.80
2023-05-12T15:07:43.295Z,2.40
2023-05-12T15:10:11.131Z,11.80
2023-05-12T15:12:38.185Z,4.10
2023-05-12T15:15:08.536Z,9.80
2023-05-12T15:17:35.552Z,6.90
2023-05-12T15:20:03.831Z,5.30
2023-05-12T15:22:31.717Z,3.10
2023-05-12T15:24:58.880Z,4.00
2023-05-12T15:27:26.474Z,5.00
2023-05-12T15:29:54.014Z,2.80
2023-05-12T15:32:20.915Z,4.20
2023-05-12T15:34:47.855Z,5.50
2023-05-12T15:37:14.886Z,3.10
2023-05-12T15:39:41.790Z,3.90
2023-05-12T15:42:09.418Z,8.30
2023-05-12T15:44:36.613Z,2.80
2023-05-12T15:47:04.051Z,5.40
2023-05-12T15:49:30.973Z,2.00
2023-05-12T15:51:58.105Z,6.20
2023-05-12T15:54:26.561Z,7.40
2023-05-12T15:56:53.532Z,5.20
2023-05-12T15:59:20.750Z,3.30
2023-05-12T16:01:47.893Z,2.30
2023-05-12T16:04:14.892Z,3.80
2023-05-12T16:06:41.850Z,3.40
2023-05-12T16:09:09.596Z,6.00
2023-05-12T16:11:36.622Z,2.20
2023-05-12T16:14:03.685Z,2.20
2023-05-12T16:16:30.985Z,3.60
2023-05-12T16:18:58.285Z,2.10
2023-05-12T16:21:25.168Z,2.50
2023-05-12T16:23:52.130Z,6.80
2023-05-12T16:26:19.426Z,6.10
2023-05-12T16:28:46.693Z,3.60
2023-05-12T16:31:18.181Z,5.00
2023-05-12T16:33:45.708Z,5.80
2023-05-12T16:36:13.172Z,8.50
2023-05-12T16:38:40.133Z,6.10
2023-05-12T16:41:07.742Z,2.60
2023-05-12T16:43:34.818Z,7.50
2023-05-12T16:46:02.538Z,5.20
2023-05-12T16:48:34.345Z,8.60
2023-05-12T16:51:05.684Z,12.20
2023-05-12T16:53:33.152Z,2.90
2023-05-12T16:56:00.137Z,12.90
2023-05-12T16:58:33.430Z,3.70
2023-05-12T17:01:01.179Z,9.20
2023-05-12T17:03:29.230Z,18.30
2023-05-12T17:05:56.527Z,20.00
2023-05-12T17:08:24.593Z,30.20
2023-05-12T17:10:51.975Z,19.10
2023-05-12T17:13:19.028Z,27.20
2023-05-12T17:15:46.037Z,29.70
2023-05-12T17:18:13.178Z,19.40
2023-05-12T17:20:40.211Z,23.30
2023-05-12T17:23:08.437Z,16.60
2023-05-12T17:25:36.815Z,34.20
2023-05-12T17:28:05.080Z,23.50
2023-05-12T17:30:32.230Z,19.10
2023-05-12T17:32:59.324Z,8.50
2023-05-12T17:35:26.469Z,38.70
2023-05-12T17:37:55.700Z,28.10
2023-05-12T17:40:22.917Z,29.10
2023-05-12T17:42:52.803Z,18.30
2023-05-12T17:45:20.267Z,10.80
2023-05-12T17:47:49.268Z,23.90
2023-05-12T17:50:16.434Z,19.30
2023-05-12T17:52:43.722Z,20.20
2023-05-12T17:55:10.918Z,29.50
2023-05-12T17:57:38.295Z,24.00
2023-05-12T18:00:10.530Z,33.40
2023-05-12T18:02:44.037Z,34.80
2023-05-12T18:05:11.235Z,29.70
2023-05-12T18:07:38.233Z,25.70
2023-05-12T18:10:09.417Z,23.90
2023-05-12T18:12:37.136Z,24.50
2023-05-12T18:15:05.072Z,35.70
2023-05-12T18:17:32.665Z,30.80
2023-05-12T18:20:00.076Z,29.60
2023-05-12T18:22:27.347Z,34.80
2023-05-12T18:24:54.631Z,25.90
2023-05-12T18:27:21.590Z,22.00
2023-05-12T18:29:48.626Z,15.30
2023-05-12T18:32:15.639Z,19.10
2023-05-12T18:34:44.322Z,9.10
2023-05-12T18:37:14.516Z,20.20
2023-05-12T18:39:42.929Z,18.90
2023-05-12T18:42:11.153Z,20.30
2023-05-12T18:44:40.595Z,13.90
2023-05-12T18:47:08.677Z,19.90
2023-05-12T18:49:36.274Z,10.40
2023-05-12T18:52:03.548Z,10.40
2023-05-12T18:54:30.827Z,10.60
2023-05-12T18:56:57.834Z,6.10
2023-05-12T18:59:24.826Z,11.10
2023-05-12T19:01:51.789Z,5.50
2023-05-12T19:04:19.682Z,5.60
2023-05-12T19:06:47.035Z,9.80
2023-05-12T19:09:14.052Z,9.30
2023-05-12T19:11:40.999Z,11.40
2023-05-12T19:14:08.033Z,11.50
2023-05-12T19:16:36.445Z,8.40
2023-05-12T19:19:03.537Z,12.10
2023-05-12T19:21:32.413Z,12.80
2023-05-12T19:23:59.440Z,24.20
2023-05-12T19:26:26.988Z,46.70
2023-05-12T19:28:54.053Z,85.30
2023-05-12T19:31:21.056Z,91.70
2023-05-12T19:33:47.984Z,128.10
2023-05-12T19:36:14.947Z,130.20
2023-05-12T19:38:43.813Z,103.50
2023-05-12T19:41:11.002Z,87.40
2023-05-12T19:43:37.982Z,93.30
2023-05-12T19:46:05.015Z,72.00
2023-05-12T19:48:32.454Z,45.30
2023-05-12T19:50:59.364Z,23.40
2023-05-12T19:53:26.909Z,18.50
2023-05-12T19:55:54.035Z,11.20
2023-05-12T19:58:20.960Z,13.40
2023-05-12T20:00:48.115Z,11.50
2023-05-12T20:03:15.429Z,8.10
2023-05-12T20:05:42.715Z,9.40
2023-05-12T20:08:09.722Z,6.60
2023-05-12T20:10:36.778Z,9.00
2023-05-12T20:13:04.597Z,6.50
2023-05-12T20:15:31.697Z,12.70
2023-05-12T20:17:58.630Z,11.70
2023-05-12T20:20:25.822Z,9.80
2023-05-12T20:22:52.852Z,7.80
2023-05-12T20:25:20.032Z,16.00
2023-05-12T20:27:48.227Z,9.00
2023-05-12T20:30:15.134Z,13.20
2023-05-12T20:32:43.659Z,10.00
2023-05-12T20:35:10.944Z,13.90
2023-05-12T20:37:39.115Z,15.10
2023-05-12T20:40:07.214Z,12.00
2023-05-12T20:42:34.308Z,9.30
2023-05-12T20:45:01.393Z,10.50
2023-05-12T20:47:30.603Z,7.90
2023-05-12T20:49:57.855Z,10.60
2023-05-12T20:52:28.978Z,8.90
2023-05-12T20:54:57.993Z,12.20
2023-05-12T20:57:25.871Z,13.30
2023-05-12T20:59:52.867Z,13.30
2023-05-12T21:02:19.934Z,14.90
2023-05-12T21:04:46.872Z,18.10
2023-05-12T21:07:13.875Z,23.30
2023-05-12T21:09:40.852Z,26.10
2023-05-12T21:12:08.477Z,20.30
2023-05-12T21:14:39.743Z,25.30
2023-05-12T21:17:08.058Z,23.50
2023-05-12T21:19:36.217Z,22.00
2023-05-12T21:22:03.987Z,29.20
2023-05-12T21:24:31.062Z,34.40
2023-05-12T21:26:58.422Z,40.00
2023-05-12T21:29:25.565Z,38.50
2023-05-12T21:31:52.677Z,44.70
2023-05-12T21:34:19.848Z,39.00
2023-05-12T21:36:46.986Z,51.50
2023-05-12T21:39:13.873Z,36.60
2023-05-12T21:41:40.980Z,32.50
2023-05-12T21:44:10.418Z,39.70
2023-05-12T21:46:38.293Z,25.20
2023-05-12T21:49:05.382Z,28.00
2023-05-12T21:51:33.271Z,25.80
2023-05-12T21:54:00.865Z,32.30
2023-05-12T21:56:27.883Z,24.40
2023-05-12T21:58:54.829Z,18.40
2023-05-12T22:01:21.826Z,22.90
2023-05-12T22:03:49.515Z,37.70
2023-05-12T22:06:16.626Z,33.40
2023-05-12T22:08:43.708Z,33.90
2023-05-12T22:11:11.396Z,23.40
2023-05-12T22:13:38.423Z,32.10
2023-05-12T22:16:05.923Z,26.40
2023-05-12T22:18:33.464Z,35.10
2023-05-12T22:21:00.707Z,19.40
2023-05-12T22:23:27.597Z,30.70
2023-05-12T22:25:54.653Z,31.20
2023-05-12T22:28:21.585Z,32.20
2023-05-12T22:30:48.577Z,22.80
2023-05-12T22:33:15.575Z,38.40
2023-05-12T22:35:42.844Z,36.40
2023-05-12T22:38:09.960Z,35.10
2023-05-12T22:40:36.865Z,38.10
2023-05-12T22:43:03.816Z,33.30
2023-05-12T22:45:31.068Z,34.10
2023-05-12T22:47:58.288Z,48.40
2023-05-12T22:50:25.473Z,45.00
2023-05-12T22:52:57.262Z,46.00
2023-05-12T22:55:27.360Z,30.20
2023-05-12T22:57:54.414Z,45.70
2023-05-12T23:00:21.689Z,40.80
2023-05-12T23:02:48.982Z,33.00
2023-05-12T23:05:16.126Z,28.60
2023-05-12T23:07:43.037Z,33.80
2023-05-12T23:10:10.540Z,35.20
2023-05-12T23:12:37.520Z,35.10
2023-05-12T23:15:04.909Z,26.30
2023-05-12T23:17:32.117Z,26.60
2023-05-12T23:19:59.255Z,25.70
2023-05-12T23:22:26.218Z,27.80
2023-05-12T23:24:53.641Z,19.50
2023-05-12T23:27:21.060Z,15.50
2023-05-12T23:29:47.916Z,26.30
2023-05-12T23:32:14.889Z,26.50
2023-05-12T23:34:41.867Z,23.00
2023-05-12T23:37:08.880Z,22.30
2023-05-12T23:39:36.032Z,16.10
2023-05-12T23:42:03.898Z,21.40
2023-05-12T23:44:30.976Z,20.40
2023-05-12T23:46:58.035Z,19.90
2023-05-12T23:49:24.939Z,18.10
2023-05-12T23:51:51.850Z,30.30
2023-05-12T23:54:18.898Z,30.30
2023-05-12T23:56:46.097Z,15.70
2023-05-12T23:59:12.949Z,14.50
